sensor_id;sensor_type;location;lat;lon;timestamp;temperature;humidity
69776;DHT22;57049;51.450;-2.516;2023-04-03T00:00:39;4.22;89.08
69776;DHT22;57049;51.450;-2.516;2023-04-03T00:03:05;4.23;89.07
69776;DHT22;57049;51.450;-2.516;2023-04-03T00:05:30;4.20;89.21
69776;DHT22;57049;51.450;-2.516;2023-04-03T00:07:56;4.17;89.24
69776;DHT22;57049;51.450;-2.516;2023-04-03T00:10:22;4.19;89.04
69776;DHT22;57049;51.450;-2.516;2023-04-03T00:12:47;4.19;89.19
69776;DHT22;57049;51.450;-2.516;2023-04-03T00:15:13;4.12;89.30
69776;DHT22;57049;51.450;-2.516;2023-04-03T00:17:38;4.09;89.47
69776;DHT22;57049;51.450;-2.516;2023-04-03T00:20:05;4.01;89.74
69776;DHT22;57049;51.450;-2.516;2023-04-03T00:22:31;3.99;89.73
69776;DHT22;57049;51.450;-2.516;2023-04-03T00:24:56;3.96;89.67
69776;DHT22;57049;51.450;-2.516;2023-04-03T00:27:22;3.93;90.13
69776;DHT22;57049;51.450;-2.516;2023-04-03T00:29:47;3.86;89.93
69776;DHT22;57049;51.450;-2.516;2023-04-03T00:32:13;3.79;90.31
69776;DHT22;57049;51.450;-2.516;2023-04-03T00:34:39;3.72;90.39
69776;DHT22;57049;51.450;-2.516;2023-04-03T00:37:04;3.69;90.69
69776;DHT22;57049;51.450;-2.516;2023-04-03T00:39:30;3.72;90.68
69776;DHT22;57049;51.450;-2.516;2023-04-03T00:41:55;3.60;91.16
69776;DHT22;57049;51.450;-2.516;2023-04-03T00:47:09;3.58;91.19
69776;DHT22;57049;51.450;-2.516;2023-04-03T00:49:37;3.71;90.67
69776;DHT22;57049;51.450;-2.516;2023-04-03T00:52:03;3.79;90.65
69776;DHT22;57049;51.450;-2.516;2023-04-03T00:54:32;3.77;90.23
69776;DHT22;57049;51.450;-2.516;2023-04-03T00:56:58;3.77;90.20
69776;DHT22;57049;51.450;-2.516;2023-04-03T00:59:29;3.77;90.16
69776;DHT22;57049;51.450;-2.516;2023-04-03T01:01:56;3.86;90.01
69776;DHT22;57049;51.450;-2.516;2023-04-03T01:04:33;3.78;90.17
69776;DHT22;57049;51.450;-2.516;2023-04-03T01:07:09;3.69;90.33
69776;DHT22;57049;51.450;-2.516;2023-04-03T01:09:35;3.69;90.55
69776;DHT22;57049;51.450;-2.516;2023-04-03T01:14:43;3.62;90.65
69776;DHT22;57049;51.450;-2.516;2023-04-03T01:17:32;3.58;90.75
69776;DHT22;57049;51.450;-2.516;2023-04-03T01:25:39;3.54;90.91
69776;DHT22;57049;51.450;-2.516;2023-04-03T01:28:09;3.55;90.82
69776;DHT22;57049;51.450;-2.516;2023-04-03T01:30:41;3.52;90.91
69776;DHT22;57049;51.450;-2.516;2023-04-03T01:33:08;3.50;90.94
69776;DHT22;57049;51.450;-2.516;2023-04-03T01:35:33;3.41;91.20
69776;DHT22;57049;51.450;-2.516;2023-04-03T01:37:59;3.32;91.62
69776;DHT22;57049;51.450;-2.516;2023-04-03T01:40:25;3.30;91.80
69776;DHT22;57049;51.450;-2.516;2023-04-03T01:42:51;3.30;91.65
69776;DHT22;57049;51.450;-2.516;2023-04-03T01:45:16;3.30;91.75
69776;DHT22;57049;51.450;-2.516;2023-04-03T01:47:42;3.18;92.07
69776;DHT22;57049;51.450;-2.516;2023-04-03T01:50:08;3.10;92.28
69776;DHT22;57049;51.450;-2.516;2023-04-03T01:52:33;3.11;92.31
69776;DHT22;57049;51.450;-2.516;2023-04-03T01:54:59;3.07;92.49
69776;DHT22;57049;51.450;-2.516;2023-04-03T01:57:25;3.01;92.81
69776;DHT22;57049;51.450;-2.516;2023-04-03T01:59:50;3.03;92.77
69776;DHT22;57049;51.450;-2.516;2023-04-03T02:02:16;3.01;92.89
69776;DHT22;57049;51.450;-2.516;2023-04-03T02:04:42;3.03;92.86
69776;DHT22;57049;51.450;-2.516;2023-04-03T02:07:07;3.00;92.72
69776;DHT22;57049;51.450;-2.516;2023-04-03T02:09:32;3.07;92.53
69776;DHT22;57049;51.450;-2.516;2023-04-03T02:11:58;3.20;92.19
69776;DHT22;57049;51.450;-2.516;2023-04-03T02:14:23;3.16;91.97
69776;DHT22;57049;51.450;-2.516;2023-04-03T02:16:50;3.13;92.00
69776;DHT22;57049;51.450;-2.516;2023-04-03T02:19:15;3.17;91.89
69776;DHT22;57049;51.450;-2.516;2023-04-03T02:21:41;3.17;91.79
69776;DHT22;57049;51.450;-2.516;2023-04-03T02:24:07;3.17;91.80
69776;DHT22;57049;51.450;-2.516;2023-04-03T02:26:32;3.23;91.68
69776;DHT22;57049;51.450;-2.516;2023-04-03T02:28:58;3.21;91.56
69776;DHT22;57049;51.450;-2.516;2023-04-03T02:31:23;3.16;91.69
69776;DHT22;57049;51.450;-2.516;2023-04-03T02:33:49;3.10;91.83
69776;DHT22;57049;51.450;-2.516;2023-04-03T02:36:15;3.20;91.56
69776;DHT22;57049;51.450;-2.516;2023-04-03T02:38:40;3.08;91.80
69776;DHT22;57049;51.450;-2.516;2023-04-03T02:41:09;3.13;91.70
69776;DHT22;57049;51.450;-2.516;2023-04-03T02:43:36;3.07;92.00
69776;DHT22;57049;51.450;-2.516;2023-04-03T02:46:01;3.00;91.91
69776;DHT22;57049;51.450;-2.516;2023-04-03T02:48:27;2.97;92.07
69776;DHT22;57049;51.450;-2.516;2023-04-03T02:50:52;2.93;92.27
69776;DHT22;57049;51.450;-2.516;2023-04-03T02:53:18;2.86;92.39
69776;DHT22;57049;51.450;-2.516;2023-04-03T02:55:44;2.90;92.49
69776;DHT22;57049;51.450;-2.516;2023-04-03T02:58:10;2.83;92.61
69776;DHT22;57049;51.450;-2.516;2023-04-03T03:00:36;2.80;92.55
69776;DHT22;57049;51.450;-2.516;2023-04-03T03:03:02;2.89;92.40
69776;DHT22;57049;51.450;-2.516;2023-04-03T03:05:29;2.87;92.38
69776;DHT22;57049;51.450;-2.516;2023-04-03T03:07:54;2.80;92.46
69776;DHT22;57049;51.450;-2.516;2023-04-03T03:10:20;2.75;92.64
69776;DHT22;57049;51.450;-2.516;2023-04-03T03:12:46;2.79;92.58
69776;DHT22;57049;51.450;-2.516;2023-04-03T03:15:11;2.72;92.88
69776;DHT22;57049;51.450;-2.516;2023-04-03T03:17:37;2.59;93.09
69776;DHT22;57049;51.450;-2.516;2023-04-03T03:20:04;2.50;93.17
69776;DHT22;57049;51.450;-2.516;2023-04-03T03:22:30;2.41;93.64
69776;DHT22;57049;51.450;-2.516;2023-04-03T03:24:55;2.32;94.25
69776;DHT22;57049;51.450;-2.516;2023-04-03T03:27:21;2.25;94.05
69776;DHT22;57049;51.450;-2.516;2023-04-03T03:29:47;2.25;94.34
69776;DHT22;57049;51.450;-2.516;2023-04-03T03:32:12;2.18;94.23
69776;DHT22;57049;51.450;-2.516;2023-04-03T03:34:38;2.08;94.60
69776;DHT22;57049;51.450;-2.516;2023-04-03T03:37:03;1.94;94.85
69776;DHT22;57049;51.450;-2.516;2023-04-03T03:39:29;1.87;95.01
69776;DHT22;57049;51.450;-2.516;2023-04-03T03:41:54;1.83;95.90
69776;DHT22;57049;51.450;-2.516;2023-04-03T03:44:20;1.85;95.52
69776;DHT22;57049;51.450;-2.516;2023-04-03T03:46:46;1.83;95.72
69776;DHT22;57049;51.450;-2.516;2023-04-03T03:49:11;1.77;95.59
69776;DHT22;57049;51.450;-2.516;2023-04-03T03:51:38;1.75;95.89
69776;DHT22;57049;51.450;-2.516;2023-04-03T03:54:04;1.71;96.07
69776;DHT22;57049;51.450;-2.516;2023-04-03T03:56:30;1.73;96.07
69776;DHT22;57049;51.450;-2.516;2023-04-03T03:58:56;1.75;95.88
69776;DHT22;57049;51.450;-2.516;2023-04-03T04:01:22;1.75;95.90
69776;DHT22;57049;51.450;-2.516;2023-04-03T04:03:48;1.73;96.07
69776;DHT22;57049;51.450;-2.516;2023-04-03T04:06:13;1.66;96.10
69776;DHT22;57049;51.450;-2.516;2023-04-03T04:08:39;1.60;96.18
69776;DHT22;57049;51.450;-2.516;2023-04-03T04:11:05;1.56;96.22
69776;DHT22;57049;51.450;-2.516;2023-04-03T04:13:30;1.57;96.50
69776;DHT22;57049;51.450;-2.516;2023-04-03T04:15:56;1.52;96.63
69776;DHT22;57049;51.450;-2.516;2023-04-03T04:18:21;1.54;96.91
69776;DHT22;57049;51.450;-2.516;2023-04-03T04:20:48;1.56;96.85
69776;DHT22;57049;51.450;-2.516;2023-04-03T04:23:13;1.52;96.91
69776;DHT22;57049;51.450;-2.516;2023-04-03T04:25:39;1.59;96.78
69776;DHT22;57049;51.450;-2.516;2023-04-03T04:28:05;1.60;96.82
69776;DHT22;57049;51.450;-2.516;2023-04-03T04:30:31;1.53;96.71
69776;DHT22;57049;51.450;-2.516;2023-04-03T04:32:57;1.44;96.84
69776;DHT22;57049;51.450;-2.516;2023-04-03T04:35:22;1.39;96.79
69776;DHT22;57049;51.450;-2.516;2023-04-03T04:37:48;1.26;96.73
69776;DHT22;57049;51.450;-2.516;2023-04-03T04:40:13;1.19;97.11
69776;DHT22;57049;51.450;-2.516;2023-04-03T04:42:39;1.25;97.55
69776;DHT22;57049;51.450;-2.516;2023-04-03T04:45:05;1.28;97.65
69776;DHT22;57049;51.450;-2.516;2023-04-03T04:47:31;1.29;97.52
69776;DHT22;57049;51.450;-2.516;2023-04-03T04:49:56;1.26;97.43
69776;DHT22;57049;51.450;-2.516;2023-04-03T04:52:22;1.18;97.49
69776;DHT22;57049;51.450;-2.516;2023-04-03T04:54:47;1.18;97.53
69776;DHT22;57049;51.450;-2.516;2023-04-03T04:57:13;1.18;97.40
69776;DHT22;57049;51.450;-2.516;2023-04-03T04:59:38;1.15;97.53
69776;DHT22;57049;51.450;-2.516;2023-04-03T05:02:04;1.18;97.49
69776;DHT22;57049;51.450;-2.516;2023-04-03T05:04:29;1.18;97.44
69776;DHT22;57049;51.450;-2.516;2023-04-03T05:06:55;1.35;97.33
69776;DHT22;57049;51.450;-2.516;2023-04-03T05:09:21;1.49;96.89
69776;DHT22;57049;51.450;-2.516;2023-04-03T05:11:46;1.60;96.56
69776;DHT22;57049;51.450;-2.516;2023-04-03T05:14:12;1.64;96.35
69776;DHT22;57049;51.450;-2.516;2023-04-03T05:16:37;1.64;96.25
69776;DHT22;57049;51.450;-2.516;2023-04-03T05:19:03;1.77;95.98
69776;DHT22;57049;51.450;-2.516;2023-04-03T05:21:29;1.75;95.82
69776;DHT22;57049;51.450;-2.516;2023-04-03T05:23:58;1.70;95.89
69776;DHT22;57049;51.450;-2.516;2023-04-03T05:26:24;1.62;95.96
69776;DHT22;57049;51.450;-2.516;2023-04-03T05:28:51;1.57;96.09
69776;DHT22;57049;51.450;-2.516;2023-04-03T05:31:16;1.52;96.25
69776;DHT22;57049;51.450;-2.516;2023-04-03T05:33:42;1.47;96.27
69776;DHT22;57049;51.450;-2.516;2023-04-03T05:36:08;1.47;96.38
69776;DHT22;57049;51.450;-2.516;2023-04-03T05:38:33;1.44;96.33
69776;DHT22;57049;51.450;-2.516;2023-04-03T05:40:59;1.47;96.31
69776;DHT22;57049;51.450;-2.516;2023-04-03T05:43:24;1.44;96.40
69776;DHT22;57049;51.450;-2.516;2023-04-03T05:45:50;1.47;96.49
69776;DHT22;57049;51.450;-2.516;2023-04-03T05:48:16;1.50;96.29
69776;DHT22;57049;51.450;-2.516;2023-04-03T05:50:41;1.50;96.24
69776;DHT22;57049;51.450;-2.516;2023-04-03T05:53:15;1.52;96.09
69776;DHT22;57049;51.450;-2.516;2023-04-03T05:55:41;1.49;96.14
69776;DHT22;57049;51.450;-2.516;2023-04-03T05:58:07;1.47;96.25
69776;DHT22;57049;51.450;-2.516;2023-04-03T06:00:32;1.52;96.18
69776;DHT22;57049;51.450;-2.516;2023-04-03T06:02:57;1.53;96.05
69776;DHT22;57049;51.450;-2.516;2023-04-03T06:05:23;1.57;96.03
69776;DHT22;57049;51.450;-2.516;2023-04-03T06:07:49;1.57;95.90
69776;DHT22;57049;51.450;-2.516;2023-04-03T06:10:15;1.60;95.94
69776;DHT22;57049;51.450;-2.516;2023-04-03T06:12:40;1.64;95.78
69776;DHT22;57049;51.450;-2.516;2023-04-03T06:15:07;1.67;95.61
69776;DHT22;57049;51.450;-2.516;2023-04-03T06:17:33;1.67;95.57
69776;DHT22;57049;51.450;-2.516;2023-04-03T06:19:58;1.66;95.67
69776;DHT22;57049;51.450;-2.516;2023-04-03T06:22:24;1.63;95.70
69776;DHT22;57049;51.450;-2.516;2023-04-03T06:24:50;1.63;95.75
69776;DHT22;57049;51.450;-2.516;2023-04-03T06:27:16;1.67;95.59
69776;DHT22;57049;51.450;-2.516;2023-04-03T06:29:41;1.67;95.53
69776;DHT22;57049;51.450;-2.516;2023-04-03T06:32:07;1.78;95.47
69776;DHT22;57049;51.450;-2.516;2023-04-03T06:34:32;1.88;95.02
69776;DHT22;57049;51.450;-2.516;2023-04-03T06:36:58;1.94;94.72
69776;DHT22;57049;51.450;-2.516;2023-04-03T06:39:24;2.00;94.61
69776;DHT22;57049;51.450;-2.516;2023-04-03T06:41:50;2.10;94.46
69776;DHT22;57049;51.450;-2.516;2023-04-03T06:44:16;2.20;94.30
69776;DHT22;57049;51.450;-2.516;2023-04-03T06:46:43;2.34;93.74
69776;DHT22;57049;51.450;-2.516;2023-04-03T06:49:09;2.45;93.15
69776;DHT22;57049;51.450;-2.516;2023-04-03T06:51:35;2.66;92.77
69776;DHT22;57049;51.450;-2.516;2023-04-03T06:54:04;2.86;92.53
69776;DHT22;57049;51.450;-2.516;2023-04-03T06:56:29;2.96;91.47
69776;DHT22;57049;51.450;-2.516;2023-04-03T06:58:55;3.11;91.13
69776;DHT22;57049;51.450;-2.516;2023-04-03T07:01:24;3.51;89.60
69776;DHT22;57049;51.450;-2.516;2023-04-03T07:03:50;3.81;88.80
69776;DHT22;57049;51.450;-2.516;2023-04-03T07:06:16;4.23;87.58
69776;DHT22;57049;51.450;-2.516;2023-04-03T07:08:42;4.56;85.78
69776;DHT22;57049;51.450;-2.516;2023-04-03T07:11:08;5.34;83.57
69776;DHT22;57049;51.450;-2.516;2023-04-03T07:13:34;6.18;80.97
69776;DHT22;57049;51.450;-2.516;2023-04-03T07:16:01;6.86;78.96
69776;DHT22;57049;51.450;-2.516;2023-04-03T07:18:29;7.79;77.16
69776;DHT22;57049;51.450;-2.516;2023-04-03T07:20:55;7.70;73.98
69776;DHT22;57049;51.450;-2.516;2023-04-03T07:23:21;7.89;75.31
69776;DHT22;57049;51.450;-2.516;2023-04-03T07:25:48;8.25;73.17
69776;DHT22;57049;51.450;-2.516;2023-04-03T07:28:15;8.16;72.57
69776;DHT22;57049;51.450;-2.516;2023-04-03T07:30:49;7.81;73.50
69776;DHT22;57049;51.450;-2.516;2023-04-03T07:33:17;8.39;73.23
69776;DHT22;57049;51.450;-2.516;2023-04-03T07:35:44;7.64;72.93
69776;DHT22;57049;51.450;-2.516;2023-04-03T07:38:10;8.52;70.89
69776;DHT22;57049;51.450;-2.516;2023-04-03T07:40:36;7.26;73.08
69776;DHT22;57049;51.450;-2.516;2023-04-03T07:43:02;7.88;72.56
69776;DHT22;57049;51.450;-2.516;2023-04-03T07:45:29;6.53;76.39
69776;DHT22;57049;51.450;-2.516;2023-04-03T07:47:54;5.86;78.66
69776;DHT22;57049;51.450;-2.516;2023-04-03T07:50:20;5.16;81.06
69776;DHT22;57049;51.450;-2.516;2023-04-03T07:52:46;5.36;81.31
69776;DHT22;57049;51.450;-2.516;2023-04-03T07:55:12;5.11;82.51
69776;DHT22;57049;51.450;-2.516;2023-04-03T07:57:37;5.32;82.47
69776;DHT22;57049;51.450;-2.516;2023-04-03T08:00:04;5.28;82.38
69776;DHT22;57049;51.450;-2.516;2023-04-03T08:02:30;5.04;83.05
69776;DHT22;57049;51.450;-2.516;2023-04-03T08:04:57;4.75;83.66
69776;DHT22;57049;51.450;-2.516;2023-04-03T08:07:23;4.85;84.57
69776;DHT22;57049;51.450;-2.516;2023-04-03T08:09:48;4.77;84.64
69776;DHT22;57049;51.450;-2.516;2023-04-03T08:12:14;4.95;84.23
69776;DHT22;57049;51.450;-2.516;2023-04-03T08:14:40;5.08;84.14
69776;DHT22;57049;51.450;-2.516;2023-04-03T08:17:05;5.08;84.66
69776;DHT22;57049;51.450;-2.516;2023-04-03T08:19:34;5.35;83.89
69776;DHT22;57049;51.450;-2.516;2023-04-03T08:22:00;5.59;83.97
69776;DHT22;57049;51.450;-2.516;2023-04-03T08:24:28;5.56;83.16
69776;DHT22;57049;51.450;-2.516;2023-04-03T08:26:54;5.57;83.26
69776;DHT22;57049;51.450;-2.516;2023-04-03T08:29:19;5.81;83.38
69776;DHT22;57049;51.450;-2.516;2023-04-03T08:31:46;5.81;82.59
69776;DHT22;57049;51.450;-2.516;2023-04-03T08:34:12;6.20;82.26
69776;DHT22;57049;51.450;-2.516;2023-04-03T08:36:38;5.97;82.26
69776;DHT22;57049;51.450;-2.516;2023-04-03T08:39:04;6.18;82.40
69776;DHT22;57049;51.450;-2.516;2023-04-03T08:41:32;6.08;80.79
69776;DHT22;57049;51.450;-2.516;2023-04-03T08:44:19;6.16;80.62
69776;DHT22;57049;51.450;-2.516;2023-04-03T08:49:49;6.48;80.34
69776;DHT22;57049;51.450;-2.516;2023-04-03T08:52:45;6.68;79.65
69776;DHT22;57049;51.450;-2.516;2023-04-03T08:55:26;6.44;80.09
69776;DHT22;57049;51.450;-2.516;2023-04-03T09:00:30;6.48;81.03
69776;DHT22;57049;51.450;-2.516;2023-04-03T09:02:57;6.65;79.91
69776;DHT22;57049;51.450;-2.516;2023-04-03T09:08:11;6.44;79.49
69776;DHT22;57049;51.450;-2.516;2023-04-03T09:10:39;6.68;80.68
69776;DHT22;57049;51.450;-2.516;2023-04-03T09:13:30;6.71;79.59
69776;DHT22;57049;51.450;-2.516;2023-04-03T09:15:57;6.67;79.38
69776;DHT22;57049;51.450;-2.516;2023-04-03T09:18:30;6.82;79.43
69776;DHT22;57049;51.450;-2.516;2023-04-03T09:21:07;6.86;79.73
69776;DHT22;57049;51.450;-2.516;2023-04-03T09:23:54;7.10;79.22
69776;DHT22;57049;51.450;-2.516;2023-04-03T09:26:33;7.06;78.80
69776;DHT22;57049;51.450;-2.516;2023-04-03T09:29:05;7.06;78.19
69776;DHT22;57049;51.450;-2.516;2023-04-03T09:31:38;7.23;78.33
69776;DHT22;57049;51.450;-2.516;2023-04-03T09:34:27;7.55;78.03
69776;DHT22;57049;51.450;-2.516;2023-04-03T09:36:55;7.58;76.55
69776;DHT22;57049;51.450;-2.516;2023-04-03T09:39:28;7.33;77.31
69776;DHT22;57049;51.450;-2.516;2023-04-03T09:42:05;7.38;77.55
69776;DHT22;57049;51.450;-2.516;2023-04-03T09:44:37;7.67;78.10
69776;DHT22;57049;51.450;-2.516;2023-04-03T09:49:49;7.98;77.61
69776;DHT22;57049;51.450;-2.516;2023-04-03T09:52:25;7.88;76.15
69776;DHT22;57049;51.450;-2.516;2023-04-03T09:54:51;8.13;77.09
69776;DHT22;57049;51.450;-2.516;2023-04-03T09:57:17;8.30;76.06
69776;DHT22;57049;51.450;-2.516;2023-04-03T10:00:04;8.52;75.74
69776;DHT22;57049;51.450;-2.516;2023-04-03T10:04:59;8.70;74.92
69776;DHT22;57049;51.450;-2.516;2023-04-03T10:10:21;8.78;74.24
69776;DHT22;57049;51.450;-2.516;2023-04-03T10:12:48;8.84;74.60
69776;DHT22;57049;51.450;-2.516;2023-04-03T10:15:16;8.63;74.33
69776;DHT22;57049;51.450;-2.516;2023-04-03T10:17:57;8.32;75.30
69776;DHT22;57049;51.450;-2.516;2023-04-03T10:23:21;8.56;75.55
69776;DHT22;57049;51.450;-2.516;2023-04-03T10:29:23;9.11;74.32
69776;DHT22;57049;51.450;-2.516;2023-04-03T10:31:38;8.66;73.78
69776;DHT22;57049;51.450;-2.516;2023-04-03T10:34:06;8.97;74.48
69776;DHT22;57049;51.450;-2.516;2023-04-03T10:44:52;9.05;73.35
69776;DHT22;57049;51.450;-2.516;2023-04-03T10:53:55;9.85;71.77
69776;DHT22;57049;51.450;-2.516;2023-04-03T10:59:28;9.72;71.26
69776;DHT22;57049;51.450;-2.516;2023-04-03T11:02:06;9.65;71.67
69776;DHT22;57049;51.450;-2.516;2023-04-03T11:04:36;9.83;70.65
69776;DHT22;57049;51.450;-2.516;2023-04-03T11:07:22;9.48;71.06
69776;DHT22;57049;51.450;-2.516;2023-04-03T11:09:53;9.15;71.16
69776;DHT22;57049;51.450;-2.516;2023-04-03T11:12:36;9.14;71.46
69776;DHT22;57049;51.450;-2.516;2023-04-03T11:15:04;9.10;71.18
69776;DHT22;57049;51.450;-2.516;2023-04-03T11:17:38;8.87;71.61
69776;DHT22;57049;51.450;-2.516;2023-04-03T11:20:16;9.07;71.43
69776;DHT22;57049;51.450;-2.516;2023-04-03T11:22:47;9.45;72.18
69776;DHT22;57049;51.450;-2.516;2023-04-03T11:25:19;9.60;70.79
69776;DHT22;57049;51.450;-2.516;2023-04-03T11:27:54;10.29;69.74
69776;DHT22;57049;51.450;-2.516;2023-04-03T11:36:01;10.89;68.77
69776;DHT22;57049;51.450;-2.516;2023-04-03T11:38:33;10.50;68.08
69776;DHT22;57049;51.450;-2.516;2023-04-03T11:41:03;10.38;67.72
69776;DHT22;57049;51.450;-2.516;2023-04-03T11:43:31;10.36;67.91
69776;DHT22;57049;51.450;-2.516;2023-04-03T11:46:05;9.83;67.81
69776;DHT22;57049;51.450;-2.516;2023-04-03T11:51:02;9.58;69.95
69776;DHT22;57049;51.450;-2.516;2023-04-03T11:53:32;9.80;70.18
69776;DHT22;57049;51.450;-2.516;2023-04-03T11:55:59;9.62;70.24
69776;DHT22;57049;51.450;-2.516;2023-04-03T11:58:26;9.55;69.59
69776;DHT22;57049;51.450;-2.516;2023-04-03T12:00:57;9.78;69.80
69776;DHT22;57049;51.450;-2.516;2023-04-03T12:05:56;9.82;68.86
69776;DHT22;57049;51.450;-2.516;2023-04-03T12:19:03;9.82;68.08
69776;DHT22;57049;51.450;-2.516;2023-04-03T12:24:24;10.29;68.85
69776;DHT22;57049;51.450;-2.516;2023-04-03T12:29:28;10.09;68.58
69776;DHT22;57049;51.450;-2.516;2023-04-03T12:38:10;10.52;67.61
69776;DHT22;57049;51.450;-2.516;2023-04-03T12:45:50;11.22;66.20
69776;DHT22;57049;51.450;-2.516;2023-04-03T12:48:22;11.18;66.05
69776;DHT22;57049;51.450;-2.516;2023-04-03T12:50:49;11.18;65.46
69776;DHT22;57049;51.450;-2.516;2023-04-03T12:53:22;11.50;65.69
69776;DHT22;57049;51.450;-2.516;2023-04-03T12:55:54;11.81;65.92
69776;DHT22;57049;51.450;-2.516;2023-04-03T12:58:25;11.84;64.00
69776;DHT22;57049;51.450;-2.516;2023-04-03T13:01:10;11.88;65.71
69776;DHT22;57049;51.450;-2.516;2023-04-03T13:03:39;11.53;63.65
69776;DHT22;57049;51.450;-2.516;2023-04-03T13:06:06;11.80;64.74
69776;DHT22;57049;51.450;-2.516;2023-04-03T13:08:32;11.71;63.58
69776;DHT22;57049;51.450;-2.516;2023-04-03T13:11:04;11.95;64.14
69776;DHT22;57049;51.450;-2.516;2023-04-03T13:13:31;12.18;65.22
69776;DHT22;57049;51.450;-2.516;2023-04-03T13:15:59;12.22;61.42
69776;DHT22;57049;51.450;-2.516;2023-04-03T13:18:33;12.20;61.95
69776;DHT22;57049;51.450;-2.516;2023-04-03T13:21:17;12.17;62.35
69776;DHT22;57049;51.450;-2.516;2023-04-03T13:23:47;12.50;61.28
69776;DHT22;57049;51.450;-2.516;2023-04-03T13:26:17;12.48;62.21
69776;DHT22;57049;51.450;-2.516;2023-04-03T13:28:43;12.95;60.10
69776;DHT22;57049;51.450;-2.516;2023-04-03T13:36:37;12.52;57.78
69776;DHT22;57049;51.450;-2.516;2023-04-03T13:41:58;13.16;57.74
69776;DHT22;57049;51.450;-2.516;2023-04-03T13:44:34;13.30;58.96
69776;DHT22;57049;51.450;-2.516;2023-04-03T13:47:15;12.82;58.25
69776;DHT22;57049;51.450;-2.516;2023-04-03T13:49:46;12.66;59.18
69776;DHT22;57049;51.450;-2.516;2023-04-03T13:52:38;12.34;58.27
69776;DHT22;57049;51.450;-2.516;2023-04-03T13:55:24;12.01;59.86
69776;DHT22;57049;51.450;-2.516;2023-04-03T13:57:59;11.93;59.99
69776;DHT22;57049;51.450;-2.516;2023-04-03T14:01:11;12.38;59.92
69776;DHT22;57049;51.450;-2.516;2023-04-03T14:03:31;12.88;59.59
69776;DHT22;57049;51.450;-2.516;2023-04-03T14:05:58;12.63;60.41
69776;DHT22;57049;51.450;-2.516;2023-04-03T14:08:23;12.90;57.34
69776;DHT22;57049;51.450;-2.516;2023-04-03T14:10:49;13.04;59.26
69776;DHT22;57049;51.450;-2.516;2023-04-03T14:13:17;13.31;59.03
69776;DHT22;57049;51.450;-2.516;2023-04-03T14:15:44;13.34;59.71
69776;DHT22;57049;51.450;-2.516;2023-04-03T14:18:15;12.46;58.61
69776;DHT22;57049;51.450;-2.516;2023-04-03T14:20:41;12.24;61.10
69776;DHT22;57049;51.450;-2.516;2023-04-03T14:23:07;12.52;61.23
69776;DHT22;57049;51.450;-2.516;2023-04-03T14:25:32;12.95;60.47
69776;DHT22;57049;51.450;-2.516;2023-04-03T14:27:58;12.96;61.30
69776;DHT22;57049;51.450;-2.516;2023-04-03T14:30:30;13.00;60.22
69776;DHT22;57049;51.450;-2.516;2023-04-03T14:32:56;12.66;58.67
69776;DHT22;57049;51.450;-2.516;2023-04-03T14:35:23;12.78;60.42
69776;DHT22;57049;51.450;-2.516;2023-04-03T14:37:49;13.07;60.17
69776;DHT22;57049;51.450;-2.516;2023-04-03T14:40:18;13.36;58.20
69776;DHT22;57049;51.450;-2.516;2023-04-03T14:42:44;13.64;58.76
69776;DHT22;57049;51.450;-2.516;2023-04-03T14:45:12;13.78;56.47
69776;DHT22;57049;51.450;-2.516;2023-04-03T14:47:47;13.70;56.23
69776;DHT22;57049;51.450;-2.516;2023-04-03T14:50:17;13.81;56.78
69776;DHT22;57049;51.450;-2.516;2023-04-03T14:52:43;13.79;56.71
69776;DHT22;57049;51.450;-2.516;2023-04-03T14:55:09;12.99;58.40
69776;DHT22;57049;51.450;-2.516;2023-04-03T14:57:34;12.92;59.33
69776;DHT22;57049;51.450;-2.516;2023-04-03T15:00:00;13.37;59.41
69776;DHT22;57049;51.450;-2.516;2023-04-03T15:02:35;13.13;56.94
69776;DHT22;57049;51.450;-2.516;2023-04-03T15:05:04;12.86;57.44
69776;DHT22;57049;51.450;-2.516;2023-04-03T15:07:32;12.29;57.75
69776;DHT22;57049;51.450;-2.516;2023-04-03T15:10:13;12.41;57.68
69776;DHT22;57049;51.450;-2.516;2023-04-03T15:12:39;12.73;58.92
69776;DHT22;57049;51.450;-2.516;2023-04-03T15:15:06;12.97;58.48
69776;DHT22;57049;51.450;-2.516;2023-04-03T15:17:31;13.24;57.43
69776;DHT22;57049;51.450;-2.516;2023-04-03T15:19:58;13.36;56.23
69776;DHT22;57049;51.450;-2.516;2023-04-03T15:22:23;13.40;55.84
69776;DHT22;57049;51.450;-2.516;2023-04-03T15:24:49;13.14;58.40
69776;DHT22;57049;51.450;-2.516;2023-04-03T15:27:15;13.07;57.19
69776;DHT22;57049;51.450;-2.516;2023-04-03T15:29:41;12.78;57.69
69776;DHT22;57049;51.450;-2.516;2023-04-03T15:32:08;13.02;58.11
69776;DHT22;57049;51.450;-2.516;2023-04-03T15:34:35;12.85;58.35
69776;DHT22;57049;51.450;-2.516;2023-04-03T15:37:00;12.69;59.84
69776;DHT22;57049;51.450;-2.516;2023-04-03T15:39:26;12.52;60.01
69776;DHT22;57049;51.450;-2.516;2023-04-03T15:41:51;12.72;60.40
69776;DHT22;57049;51.450;-2.516;2023-04-03T15:44:20;12.72;59.69
69776;DHT22;57049;51.450;-2.516;2023-04-03T15:46:46;12.45;59.63
69776;DHT22;57049;51.450;-2.516;2023-04-03T15:49:14;12.79;59.81
69776;DHT22;57049;51.450;-2.516;2023-04-03T15:51:39;12.89;60.60
69776;DHT22;57049;51.450;-2.516;2023-04-03T15:54:05;13.09;59.23
69776;DHT22;57049;51.450;-2.516;2023-04-03T15:56:30;12.92;58.84
69776;DHT22;57049;51.450;-2.516;2023-04-03T15:58:56;13.23;58.71
69776;DHT22;57049;51.450;-2.516;2023-04-03T16:01:21;13.23;57.31
69776;DHT22;57049;51.450;-2.516;2023-04-03T16:03:47;12.99;58.11
69776;DHT22;57049;51.450;-2.516;2023-04-03T16:06:13;12.89;59.42
69776;DHT22;57049;51.450;-2.516;2023-04-03T16:08:39;13.06;59.13
69776;DHT22;57049;51.450;-2.516;2023-04-03T16:11:05;13.09;58.78
69776;DHT22;57049;51.450;-2.516;2023-04-03T16:13:30;13.09;59.81
69776;DHT22;57049;51.450;-2.516;2023-04-03T16:15:56;13.13;59.95
69776;DHT22;57049;51.450;-2.516;2023-04-03T16:18:22;13.16;58.85
69776;DHT22;57049;51.450;-2.516;2023-04-03T16:20:47;13.24;58.80
69776;DHT22;57049;51.450;-2.516;2023-04-03T16:23:13;13.36;58.50
69776;DHT22;57049;51.450;-2.516;2023-04-03T16:25:39;12.82;58.77
69776;DHT22;57049;51.450;-2.516;2023-04-03T16:28:04;12.89;60.25
69776;DHT22;57049;51.450;-2.516;2023-04-03T16:30:30;12.96;60.49
69776;DHT22;57049;51.450;-2.516;2023-04-03T16:32:56;13.07;58.68
69776;DHT22;57049;51.450;-2.516;2023-04-03T16:35:21;13.03;59.41
69776;DHT22;57049;51.450;-2.516;2023-04-03T16:37:47;13.03;60.57
69776;DHT22;57049;51.450;-2.516;2023-04-03T16:40:13;12.63;60.98
69776;DHT22;57049;51.450;-2.516;2023-04-03T16:42:39;12.83;61.50
69776;DHT22;57049;51.450;-2.516;2023-04-03T16:45:06;12.97;60.77
69776;DHT22;57049;51.450;-2.516;2023-04-03T16:47:32;12.92;60.79
69776;DHT22;57049;51.450;-2.516;2023-04-03T16:49:57;12.76;60.62
69776;DHT22;57049;51.450;-2.516;2023-04-03T16:52:23;12.53;62.00
69776;DHT22;57049;51.450;-2.516;2023-04-03T16:54:49;12.38;61.86
69776;DHT22;57049;51.450;-2.516;2023-04-03T16:57:14;12.28;61.84
69776;DHT22;57049;51.450;-2.516;2023-04-03T16:59:40;12.32;62.82
69776;DHT22;57049;51.450;-2.516;2023-04-03T17:02:06;12.44;62.14
69776;DHT22;57049;51.450;-2.516;2023-04-03T17:04:31;12.39;61.55
69776;DHT22;57049;51.450;-2.516;2023-04-03T17:06:57;12.21;61.05
69776;DHT22;57049;51.450;-2.516;2023-04-03T17:09:22;12.18;62.06